Flight Track Log - Related Links

Times and Time Zones

All times are in EST time to prevent confusion due to time zone crossing. See the N589H flight status page for this flight to view local times or setup timezone preferences in your user account.

Time Position Orientation Groundspeed Altitude Reporting Facility
EST Latitude Longitude Course Direction KTS MPH feet Rate Location/Type
Wed 01:26:05 PM 32.4589 -93.8386 336° Northwest 153 176 1,000  Level Fort Worth Center
Wed 01:27:05 PM 32.4942 -93.8703 323° Northwest 167 192 3,100 2,087 Climbing Fort Worth Center
Wed 01:27:14 PM 32.5022 -93.8722 348° North 163 188 3,400 1,967 Climbing Fort Worth Center
Wed 01:28:06 PM 32.5206 -93.9275 291° West 212 244 5,100 1,935 Climbing Fort Worth Center
Wed 01:28:16 PM 32.5242 -93.9344 302° West 204 235 5,400 1,869 Climbing Fort Worth Center
Wed 01:29:07 PM 32.5408 -93.9900 290° West 210 242 7,000 1,839 Climbing Fort Worth Center
Wed 01:29:18 PM 32.5456 -94.0022 295° West 204 235 7,300 1,973 Climbing Fort Worth Center
Wed 01:30:20 PM 32.5656 -94.0656 291° West 206 237 9,400 1,935 Climbing Fort Worth Center
Wed 01:31:22 PM 32.5853 -94.1281 291° West 190 219 11,300 1,742 Climbing Fort Worth Center
Wed 01:32:24 PM 32.6058 -94.1886 292° West 194 223 13,000 1,790 Climbing Fort Worth Center
Wed 01:33:26 PM 32.6278 -94.2586 290° West 204 235 15,000 1,776 Climbing Fort Worth Center
Wed 01:34:29 PM 32.6475 -94.3231 290° West 207 238 16,700 1,536 Climbing Fort Worth Center
Wed 01:35:31 PM 32.6708 -94.3953 291° West 215 247 18,200 1,452 Climbing Fort Worth Center
Wed 01:36:33 PM 32.6906 -94.4561 291° West 218 251 19,700 1,403 Climbing Fort Worth Center
Wed 01:37:35 PM 32.7114 -94.5225 290° West 217 250 21,100 1,452 Climbing Fort Worth Center
Wed 01:38:37 PM 32.7328 -94.5875 291° West 214 246 22,700 1,210 Climbing Fort Worth Center
Wed 01:39:39 PM 32.7572 -94.6681 290° West 218 251 23,600 968 Climbing Fort Worth Center
Wed 01:40:41 PM 32.7797 -94.7386 291° West 226 260 24,700 968 Climbing Fort Worth Center
Wed 01:41:43 PM 32.8011 -94.8092 290° West 229 264 25,600 823 Climbing Fort Worth Center
Wed 01:42:45 PM 32.8233 -94.8797 291° West 228 262 26,400 816 Climbing Fort Worth Center
Wed 01:43:48 PM 32.8472 -94.9522 291° West 231 266 27,300 768 Climbing Fort Worth Center
Wed 01:44:50 PM 32.8694 -95.0247 290° West 233 268 28,000 339 Climbing Fort Worth Center
Wed 01:45:52 PM 32.8972 -95.1153 290° West 240 276 28,000  Level Fort Worth Center
Wed 01:46:54 PM 32.9217 -95.1958 290° West 256 295 28,000  Level Fort Worth Center
Wed 01:47:56 PM 32.9481 -95.2792 291° West 263 303 28,000  Level Fort Worth Center
Wed 01:48:58 PM 32.9769 -95.3733 290° West 268 308 28,000  Level Fort Worth Center
Wed 01:50:00 PM 33.0039 -95.4567 291° West 269 310 28,000  Level Fort Worth Center
Wed 01:51:02 PM 33.0272 -95.5319 290° West 271 312 28,000  Level Fort Worth Center
Wed 01:52:05 PM 33.0553 -95.6275 289° West 273 314 28,000  Level Fort Worth Center
Wed 01:53:07 PM 33.0828 -95.7142 291° West 279 321 28,000  Level Fort Worth Center
Wed 01:54:09 PM 33.1083 -95.8022 289° West 279 321 28,000  Level Fort Worth Center
Wed 01:55:11 PM 33.1417 -95.9089 290° West 283 326 28,000  Level Fort Worth Center
Wed 01:56:13 PM 33.1678 -95.9981 289° West 284 327 28,000  Level Fort Worth Center
Wed 01:57:15 PM 33.1947 -96.0881 290° West 287 330 28,000  Level Fort Worth Center
Wed 01:58:17 PM 33.2222 -96.1778 290° West 288 331 28,000  Level Fort Worth Center
Wed 01:59:19 PM 33.2506 -96.2681 291° West 289 333 28,000  Level Fort Worth Center
Wed 02:00:21 PM 33.2822 -96.3769 289° West 290 334 28,000  Level Fort Worth Center
Wed 02:01:24 PM 33.3094 -96.4686 290° West 290 334 28,000  Level Fort Worth Center
Wed 02:02:26 PM 33.3367 -96.5594 290° West 291 335 28,000  Level Fort Worth Center
Wed 02:03:28 PM 33.3633 -96.6514 289° West 292 336 28,000  Level Fort Worth Center
Wed 02:04:30 PM 33.3917 -96.7436 290° West 293 337 28,000  Level Fort Worth Center
Wed 02:05:32 PM 33.4247 -96.8547 290° West 295 339 28,000  Level Fort Worth Center
Wed 02:06:34 PM 33.4514 -96.9475 289° West 295 339 28,000  Level Fort Worth Center
Wed 02:07:36 PM 33.4794 -97.0397 290° West 295 339 28,000  Level Fort Worth Center
Wed 02:08:38 PM 33.5058 -97.1336 289° West 295 339 28,000  Level Fort Worth Center
Wed 02:09:40 PM 33.5325 -97.2286 289° West 299 344 28,000  Level Fort Worth Center
Wed 02:10:43 PM 33.5603 -97.3239 289° West 302 348 28,000  Level Fort Worth Center
Wed 02:11:45 PM 33.5928 -97.4364 289° West 302 348 28,000  Level Fort Worth Center
Wed 02:12:47 PM 33.6208 -97.5314 290° West 302 348 28,000  Level Fort Worth Center
Wed 02:13:49 PM 33.6503 -97.6358 289° West 303 349 28,000  Level Fort Worth Center
Wed 02:14:51 PM 33.6758 -97.7225 290° West 303 349 28,000  Level Fort Worth Center
Wed 02:15:53 PM 33.7022 -97.8186 288° West 303 349 28,000  Level Fort Worth Center
Wed 02:16:55 PM 33.7356 -97.9328 289° West 304 350 28,000  Level Fort Worth Center
Wed 02:17:57 PM 33.7631 -98.0292 289° West 305 351 28,000  Level Fort Worth Center
Wed 02:18:59 PM 33.7908 -98.1289 289° West 315 362 28,000  Level Fort Worth Center
Wed 02:20:02 PM 33.8189 -98.2283 289° West 315 362 28,000  Level Fort Worth Center
Wed 02:21:04 PM 33.8458 -98.3264 288° West 314 361 28,000  Level Fort Worth Center
Wed 02:22:06 PM 33.8794 -98.4467 289° West 314 361 28,000  Level Fort Worth Center
Wed 02:23:08 PM 33.9069 -98.5497 288° West 321 369 28,000  Level Fort Worth Center
Wed 02:24:10 PM 33.9378 -98.6594 289° West 322 371 28,000  Level Fort Worth Center
Wed 02:25:12 PM 33.9636 -98.7531 288° West 322 371 28,000  Level Fort Worth Center
Wed 02:26:14 PM 33.9919 -98.8569 288° West 326 375 28,000  Level Fort Worth Center
Wed 02:27:16 PM 34.0206 -98.9611 288° West 326 375 28,000  Level Fort Worth Center
Wed 02:28:18 PM 34.0539 -99.0844 288° West 326 375 28,000  Level Fort Worth Center
Wed 02:29:21 PM 34.0817 -99.1842 289° West 335 386 28,000  Level Fort Worth Center
Wed 02:30:23 PM 34.1094 -99.2867 288° West 331 381 28,000  Level Fort Worth Center
Wed 02:31:25 PM 34.1372 -99.3903 288° West 326 375 28,000  Level Fort Worth Center
Wed 02:32:27 PM 34.1708 -99.5147 288° West 326 375 28,000  Level Fort Worth Center
Wed 02:33:29 PM 34.1986 -99.6181 288° West 326 375 28,000  Level Fort Worth Center
Wed 02:34:31 PM 34.2264 -99.7225 288° West 326 375 28,000  Level Fort Worth Center
Wed 02:35:33 PM 34.2542 -99.8267 288° West 326 375 28,000  Level Fort Worth Center
Wed 02:36:35 PM 34.2811 -99.9306 287° West 326 375 28,000  Level Fort Worth Center
Wed 02:37:37 PM 34.3139 -100.0581 287° West 326 375 28,000  Level Fort Worth Center
Wed 02:38:39 PM 34.3389 -100.1519 288° West 326 375 28,000  Level Fort Worth Center
Wed 02:39:42 PM 34.3664 -100.2561 288° West 326 375 28,000  Level Fort Worth Center
Wed 02:40:44 PM 34.4000 -100.3808 288° West 326 375 28,000  Level Fort Worth Center
Wed 02:41:46 PM 34.4258 -100.4864 287° West 326 375 28,000  Level Fort Worth Center
Wed 02:42:51 PM 34.4550 -100.5897 289° West 326 375 28,000  Level Albuquerque Center
Wed 02:43:53 PM 34.4814 -100.6947 287° West 327 376 28,000  Level Albuquerque Center
Wed 02:44:55 PM 34.5133 -100.8211 287° West 327 376 28,000  Level Albuquerque Center
Wed 02:45:57 PM 34.5400 -100.9267 287° West 327 376 28,000  Level Albuquerque Center
Wed 02:46:59 PM 34.5667 -101.0322 287° West 328 377 28,000  Level Albuquerque Center
Wed 02:48:01 PM 34.5931 -101.1375 287° West 327 376 28,000  Level Albuquerque Center
Wed 02:49:03 PM 34.6203 -101.2431 287° West 327 376 28,000  Level Albuquerque Center
Wed 02:50:05 PM 34.6464 -101.3486 287° West 327 376 28,000  Level Albuquerque Center
Wed 02:51:07 PM 34.6717 -101.4578 286° West 333 383 28,000  Level Albuquerque Center
Wed 02:52:09 PM 34.7036 -101.5844 287° West 329 379 28,000  Level Albuquerque Center
Wed 02:53:11 PM 34.7308 -101.6900 287° West 327 376 28,000 -194 Level Albuquerque Center
Wed 02:54:13 PM 34.7569 -101.7983 286° West 330 380 27,600 -581 Descending Albuquerque Center
Wed 02:55:15 PM 34.7842 -101.9119 286° West 341 392 26,800 -823 Descending Albuquerque Center
Wed 02:56:17 PM 34.8119 -102.0247 287° West 346 398 25,900 -823 Descending Albuquerque Center
Wed 02:57:19 PM 34.8394 -102.1383 286° West 348 400 25,100 -864 Descending Albuquerque Center
Wed 02:58:22 PM 34.8661 -102.2500 286° West 345 397 24,100 -1,210 Descending Albuquerque Center
Wed 02:59:23 PM 34.8969 -102.3828 286° West 341 392 22,600 -1,512 Descending Albuquerque Center
Wed 03:00:25 PM 34.9231 -102.4872 287° West 332 382 21,000 -1,536 Descending Albuquerque Center
Wed 03:01:28 PM 34.9483 -102.5892 287° West 321 369 19,400 -1,536 Descending Albuquerque Center
Wed 03:02:30 PM 34.9708 -102.6883 286° West 312 359 17,800 -1,500 Descending Albuquerque Center
Wed 03:03:32 PM 34.9947 -102.7889 286° West 308 354 16,300 -1,645 Descending Albuquerque Center
Wed 03:04:34 PM 35.0236 -102.9044 287° West 303 349 14,400 -1,694 Descending Albuquerque Center
Wed 03:05:36 PM 35.0467 -103.0022 286° West 300 345 12,800 -1,548 Descending Albuquerque Center
Wed 03:06:38 PM 35.0678 -103.0986 285° West 295 339 11,200 -1,548 Descending Albuquerque Center
Wed 03:07:40 PM 35.0906 -103.1950 286° West 293 337 9,600 -1,500 Descending Albuquerque Center
Wed 03:08:42 PM 35.1111 -103.2886 285° West 289 333 8,100 -774 Descending Albuquerque Center
Wed 03:09:44 PM 35.1306 -103.3689 287° West 260 299 8,000 -48 Descending Albuquerque Center
Wed 03:10:46 PM 35.1469 -103.4403 286° West 229 264 8,000  Level Albuquerque Center
Wed 03:11:48 PM 35.1622 -103.5100 285° West 216 249 8,000  Level Albuquerque Center

Login

Don't have an account? Register now (free) for customized features, flight alerts, and more!